createdAt,value
2023-03-06T00:00:57.790Z,97571.73
2023-03-06T00:03:28.106Z,97564.98
2023-03-06T00:05:58.755Z,97558.23
2023-03-06T00:08:27.352Z,97558.94
2023-03-06T00:10:59.185Z,97553.30
2023-03-06T00:13:30.241Z,97550.90
2023-03-06T00:16:00.482Z,97546.02
2023-03-06T00:18:32.893Z,97540.71
2023-03-06T00:21:10.136Z,97538.05
2023-03-06T00:23:37.316Z,97536.48
2023-03-06T00:26:08.240Z,97543.41
2023-03-06T00:28:38.739Z,97555.38
2023-03-06T00:31:15.911Z,97556.98
2023-03-06T00:33:45.502Z,97550.46
2023-03-06T00:36:12.917Z,97548.40
2023-03-06T00:38:41.424Z,97543.56
2023-03-06T00:41:12.374Z,97545.70
2023-03-06T00:43:40.611Z,97548.18
2023-03-06T00:46:08.485Z,97545.55
2023-03-06T00:48:35.780Z,97551.98
2023-03-06T00:51:12.812Z,97555.51
2023-03-06T00:53:41.885Z,97564.70
2023-03-06T00:56:09.223Z,97567.55
2023-03-06T00:58:38.548Z,97574.69
2023-03-06T01:01:09.147Z,97571.57
2023-03-06T01:03:37.837Z,97568.42
2023-03-06T01:06:07.043Z,97572.68
2023-03-06T01:08:37.134Z,97568.83
2023-03-06T01:11:05.532Z,97569.24
2023-03-06T01:13:32.808Z,97566.08
2023-03-06T01:16:18.766Z,97563.58
2023-03-06T01:18:48.447Z,97566.70
2023-03-06T01:21:16.385Z,97561.24
2023-03-06T01:23:47.480Z,97559.42
2023-03-06T01:26:15.532Z,97561.73
2023-03-06T01:28:47.478Z,97564.55
2023-03-06T01:31:20.293Z,97563.45
2023-03-06T01:33:47.636Z,97561.05
2023-03-06T01:36:23.611Z,97554.16
2023-03-06T01:38:51.896Z,97556.18
2023-03-06T01:41:21.239Z,97549.85
2023-03-06T01:43:54.499Z,97546.23
2023-03-06T01:46:53.995Z,97547.42
2023-03-06T01:49:26.742Z,97549.69
2023-03-06T01:52:09.615Z,97545.08
2023-03-06T01:54:44.967Z,97550.23
2023-03-06T01:57:22.180Z,97547.70
2023-03-06T01:59:53.193Z,97549.09
2023-03-06T02:02:23.962Z,97548.80
2023-03-06T02:04:53.794Z,97553.02
2023-03-06T02:07:21.382Z,97552.53
2023-03-06T02:09:54.658Z,97550.17
2023-03-06T02:12:34.786Z,97551.05
2023-03-06T02:15:02.190Z,97550.59
2023-03-06T02:17:35.493Z,97553.52
2023-03-06T02:20:17.390Z,97545.91
2023-03-06T02:22:52.986Z,97544.02
2023-03-06T02:25:23.357Z,97543.61
2023-03-06T02:27:56.603Z,97539.95
2023-03-06T02:30:25.968Z,97542.11
2023-03-06T02:32:53.808Z,97540.93
2023-03-06T02:35:30.571Z,97535.40
2023-03-06T02:37:59.519Z,97538.46
2023-03-06T02:40:31.246Z,97539.15
2023-03-06T02:42:58.885Z,97531.17
2023-03-06T02:45:37.174Z,97527.54
2023-03-06T02:48:15.748Z,97529.33
2023-03-06T02:50:46.765Z,97523.72
2023-03-06T02:53:19.009Z,97525.02
2023-03-06T02:55:49.237Z,97531.06
2023-03-06T02:58:21.290Z,97541.59
2023-03-06T03:00:54.642Z,97545.20
2023-03-06T03:03:22.465Z,97545.52
2023-03-06T03:05:52.183Z,97548.27
2023-03-06T03:08:25.795Z,97547.80
2023-03-06T03:10:56.588Z,97548.07
2023-03-06T03:13:26.651Z,97553.25
2023-03-06T03:16:05.510Z,97551.73
2023-03-06T03:18:34.016Z,97553.80
2023-03-06T03:21:05.915Z,97560.09
2023-03-06T03:23:33.395Z,97564.09
2023-03-06T03:26:26.925Z,97564.98
2023-03-06T03:28:59.596Z,97565.55
2023-03-06T03:31:27.891Z,97562.98
2023-03-06T03:33:55.582Z,97563.80
2023-03-06T03:36:27.603Z,97560.70
2023-03-06T03:38:55.476Z,97558.08
2023-03-06T03:41:23.964Z,97554.38
2023-03-06T03:43:51.676Z,97557.80
2023-03-06T03:46:21.532Z,97558.42
2023-03-06T03:49:09.761Z,97564.77
2023-03-06T03:51:43.805Z,97564.69
2023-03-06T03:54:12.088Z,97561.02
2023-03-06T03:56:45.129Z,97562.75
2023-03-06T03:59:32.956Z,97559.30
2023-03-06T04:02:14.994Z,97561.22
2023-03-06T04:05:00.254Z,97560.55
2023-03-06T04:08:33.220Z,97561.54
2023-03-06T04:12:32.396Z,97560.37
2023-03-06T04:15:48.668Z,97558.80
2023-03-06T04:18:24.849Z,97556.93
2023-03-06T04:24:03.429Z,97563.64
2023-03-06T04:26:33.928Z,97567.56
2023-03-06T04:29:01.741Z,97575.34
2023-03-06T04:31:33.805Z,97576.42
2023-03-06T04:34:09.899Z,97563.59
2023-03-06T04:37:02.750Z,97563.64
2023-03-06T04:39:59.720Z,97564.46
2023-03-06T04:42:30.414Z,97567.16
2023-03-06T04:45:14.225Z,97570.01
2023-03-06T04:48:28.656Z,97569.33
2023-03-06T04:51:07.112Z,97567.73
2023-03-06T04:53:50.370Z,97567.55
2023-03-06T04:56:34.707Z,97570.33
2023-03-06T04:59:24.005Z,97570.08
2023-03-06T05:01:59.238Z,97570.55
2023-03-06T05:04:26.379Z,97569.91
2023-03-06T05:06:54.000Z,97570.74
2023-03-06T05:09:39.167Z,97579.21
2023-03-06T05:12:07.840Z,97576.38
2023-03-06T05:14:35.628Z,97577.27
2023-03-06T05:17:06.648Z,97575.00
2023-03-06T05:19:34.215Z,97574.00
2023-03-06T05:22:11.582Z,97573.14
2023-03-06T05:24:42.040Z,97575.55
2023-03-06T05:27:09.354Z,97575.77
2023-03-06T05:29:36.694Z,97574.02
2023-03-06T05:32:16.251Z,97576.19
2023-03-06T05:34:45.903Z,97585.42
2023-03-06T05:37:13.161Z,97585.85
2023-03-06T05:39:40.633Z,97584.52
2023-03-06T05:42:08.500Z,97583.86
2023-03-06T05:44:36.900Z,97584.84
2023-03-06T05:47:10.100Z,97592.09
2023-03-06T05:49:37.550Z,97589.02
2023-03-06T05:52:07.242Z,97589.55
2023-03-06T05:54:35.473Z,97597.80
2023-03-06T05:57:04.407Z,97598.83
2023-03-06T05:59:33.246Z,97603.63
2023-03-06T06:02:06.857Z,97607.22
2023-03-06T06:04:35.268Z,97611.52
2023-03-06T06:07:03.533Z,97611.17
2023-03-06T06:09:39.361Z,97610.19
2023-03-06T06:12:06.832Z,97604.60
2023-03-06T06:14:42.518Z,97603.88
2023-03-06T06:17:12.505Z,97606.57
2023-03-06T06:19:45.212Z,97605.48
2023-03-06T06:22:12.471Z,97603.01
2023-03-06T06:24:52.047Z,97606.63
2023-03-06T06:27:22.381Z,97611.05
2023-03-06T06:30:00.332Z,97606.90
2023-03-06T06:32:27.567Z,97616.05
2023-03-06T06:34:55.257Z,97609.70
2023-03-06T06:37:22.513Z,97612.20
2023-03-06T06:39:56.704Z,97609.27
2023-03-06T06:42:40.307Z,97616.11
2023-03-06T06:45:15.790Z,97617.16
2023-03-06T06:47:46.438Z,97622.38
2023-03-06T06:50:25.351Z,97629.50
2023-03-06T06:52:58.953Z,97634.64
2023-03-06T06:55:35.724Z,97637.05
2023-03-06T06:58:05.616Z,97642.92
2023-03-06T07:00:35.429Z,97642.13
2023-03-06T07:03:10.504Z,97640.81
2023-03-06T07:05:40.064Z,97640.93
2023-03-06T07:08:16.535Z,97641.61
2023-03-06T07:10:44.048Z,97641.31
2023-03-06T07:13:28.034Z,97641.42
2023-03-06T07:15:58.533Z,97642.69
2023-03-06T07:18:25.767Z,97647.05
2023-03-06T07:20:56.072Z,97647.73
2023-03-06T07:23:23.530Z,97646.37
2023-03-06T07:25:57.176Z,97646.91
2023-03-06T07:28:28.186Z,97651.25
2023-03-06T07:30:55.670Z,97651.20
2023-03-06T07:33:23.171Z,97648.70
2023-03-06T07:35:53.059Z,97652.80
2023-03-06T07:38:23.029Z,97655.21
2023-03-06T07:40:52.902Z,97655.98
2023-03-06T07:43:20.804Z,97661.98
2023-03-06T07:45:58.274Z,97662.70
2023-03-06T07:48:26.388Z,97662.59
2023-03-06T07:51:05.829Z,97661.71
2023-03-06T07:53:37.440Z,97658.97
2023-03-06T07:56:12.357Z,97667.41
2023-03-06T07:58:48.440Z,97667.16
2023-03-06T08:01:20.854Z,97662.51
2023-03-06T08:03:50.773Z,97665.03
2023-03-06T08:06:22.712Z,97669.61
2023-03-06T08:08:55.329Z,97668.66
2023-03-06T08:11:33.304Z,97672.83
2023-03-06T08:14:04.980Z,97671.25
2023-03-06T08:16:37.613Z,97680.58
2023-03-06T08:19:05.142Z,97683.39
2023-03-06T08:21:32.137Z,97681.71
2023-03-06T08:24:06.276Z,97688.88
2023-03-06T08:26:40.700Z,97682.91
2023-03-06T08:29:22.436Z,97686.86
2023-03-06T08:31:55.426Z,97696.86
2023-03-06T08:34:26.255Z,97689.36
2023-03-06T08:37:14.533Z,97694.98
2023-03-06T08:39:41.874Z,97698.57
2023-03-06T08:42:49.841Z,97693.66
2023-03-06T08:45:17.108Z,97701.52
2023-03-06T08:47:44.656Z,97697.45
2023-03-06T08:50:22.265Z,97705.08
2023-03-06T08:52:50.139Z,97700.88
2023-03-06T08:55:24.814Z,97705.50
2023-03-06T08:57:55.316Z,97706.18
2023-03-06T09:00:27.088Z,97708.88
2023-03-06T09:02:54.363Z,97709.09
2023-03-06T09:05:30.794Z,97708.23
2023-03-06T09:07:58.059Z,97708.95
2023-03-06T09:10:28.715Z,97711.70
2023-03-06T09:13:08.894Z,97711.73
2023-03-06T09:15:56.711Z,97712.17
2023-03-06T09:18:41.453Z,97719.31
2023-03-06T09:21:09.073Z,97719.83
2023-03-06T09:23:43.020Z,97717.38
2023-03-06T09:26:13.620Z,97714.13
2023-03-06T09:28:45.444Z,97714.81
2023-03-06T09:31:18.556Z,97708.83
2023-03-06T09:33:49.990Z,97713.75
2023-03-06T09:36:21.314Z,97711.86
2023-03-06T09:38:49.925Z,97713.80
2023-03-06T09:41:28.253Z,97713.05
2023-03-06T09:44:08.827Z,97706.14
2023-03-06T09:46:58.035Z,97707.27
2023-03-06T09:49:29.356Z,97701.19
2023-03-06T09:52:18.363Z,97700.40
2023-03-06T09:55:12.919Z,97702.69
2023-03-06T09:58:07.501Z,97698.53
2023-03-06T10:00:48.426Z,97698.48
2023-03-06T10:03:32.484Z,97697.63
2023-03-06T10:06:09.621Z,97697.61
2023-03-06T10:08:54.772Z,97697.27
2023-03-06T10:11:49.799Z,97703.19
2023-03-06T10:14:41.086Z,97702.50
2023-03-06T10:17:30.376Z,97696.11
2023-03-06T10:20:00.593Z,97700.56
2023-03-06T10:23:00.642Z,97696.48
2023-03-06T10:26:02.070Z,97699.36
2023-03-06T10:28:45.689Z,97690.65
2023-03-06T10:31:31.460Z,97690.17
2023-03-06T10:34:12.188Z,97692.98
2023-03-06T10:36:59.155Z,97694.20
2023-03-06T10:39:31.524Z,97694.14
2023-03-06T10:41:58.807Z,97690.23
2023-03-06T10:44:25.991Z,97690.05
2023-03-06T10:46:56.462Z,97681.34
2023-03-06T10:49:37.118Z,97672.45
2023-03-06T10:52:05.730Z,97678.38
2023-03-06T10:54:39.065Z,97674.41
2023-03-06T10:57:31.098Z,97673.30
2023-03-06T11:00:01.221Z,97670.59
2023-03-06T11:02:33.985Z,97668.34
2023-03-06T11:05:26.152Z,97663.89
2023-03-06T11:08:21.108Z,97659.66
2023-03-06T11:11:08.452Z,97653.36
2023-03-06T11:13:42.346Z,97645.34
2023-03-06T11:16:28.562Z,97645.96
2023-03-06T11:19:10.429Z,97644.55
2023-03-06T11:22:04.512Z,97638.81
2023-03-06T11:24:42.604Z,97636.45
2023-03-06T11:27:35.863Z,97632.19
2023-03-06T11:30:48.959Z,97632.95
2023-03-06T11:33:50.297Z,97632.67
2023-03-06T11:36:50.037Z,97635.77
2023-03-06T11:39:54.783Z,97636.63
2023-03-06T11:42:29.795Z,97642.31
2023-03-06T11:45:27.171Z,97643.49
2023-03-06T11:48:15.560Z,97640.35
2023-03-06T11:50:54.844Z,97641.92
2023-03-06T11:53:40.739Z,97641.33
2023-03-06T11:56:19.690Z,97637.05
2023-03-06T11:58:52.231Z,97642.60
2023-03-06T12:01:54.059Z,97643.41
2023-03-06T12:04:45.021Z,97640.29
2023-03-06T12:07:32.473Z,97636.55
2023-03-06T12:10:23.419Z,97635.90
2023-03-06T12:13:20.242Z,97631.64
2023-03-06T12:16:23.155Z,97621.70
2023-03-06T12:19:01.464Z,97623.30
2023-03-06T12:21:32.212Z,97620.83
2023-03-06T12:24:37.032Z,97620.41
2023-03-06T12:27:31.724Z,97616.47
2023-03-06T12:30:11.248Z,97616.02
2023-03-06T12:33:03.963Z,97608.89
2023-03-06T12:36:02.782Z,97603.57
2023-03-06T12:38:39.926Z,97599.20
2023-03-06T12:41:08.806Z,97595.89
2023-03-06T12:43:45.784Z,97596.64
2023-03-06T12:46:23.223Z,97592.92
2023-03-06T12:49:31.484Z,97595.27
2023-03-06T12:52:01.761Z,97593.70
2023-03-06T12:54:30.327Z,97594.70
2023-03-06T12:56:57.574Z,97590.77
2023-03-06T12:59:44.700Z,97585.23
2023-03-06T13:02:17.786Z,97583.01
2023-03-06T13:04:56.477Z,97578.88
2023-03-06T13:07:47.872Z,97577.85
2023-03-06T13:10:38.650Z,97577.62
2023-03-06T13:13:25.755Z,97576.73
2023-03-06T13:16:18.582Z,97573.17
2023-03-06T13:19:02.529Z,97570.11
2023-03-06T13:21:41.824Z,97563.59
2023-03-06T13:24:37.764Z,97564.80
2023-03-06T13:27:13.574Z,97565.99
2023-03-06T13:29:48.737Z,97564.08
2023-03-06T13:32:19.700Z,97563.26
2023-03-06T13:34:51.737Z,97557.08
2023-03-06T13:37:20.433Z,97554.04
2023-03-06T13:40:10.390Z,97545.87
2023-03-06T13:43:00.059Z,97549.45
2023-03-06T13:45:31.694Z,97547.64
2023-03-06T13:48:21.403Z,97542.89
2023-03-06T13:50:49.582Z,97537.73
2023-03-06T13:53:41.246Z,97537.23
2023-03-06T13:56:26.414Z,97535.05
2023-03-06T13:59:14.230Z,97531.02
2023-03-06T14:01:52.956Z,97532.19
2023-03-06T14:04:57.835Z,97531.34
2023-03-06T14:07:33.515Z,97527.42
2023-03-06T14:10:20.701Z,97528.09
2023-03-06T14:12:50.797Z,97525.23
2023-03-06T14:15:25.364Z,97524.02
2023-03-06T14:18:28.414Z,97520.00
2023-03-06T14:20:59.614Z,97518.48
2023-03-06T14:23:30.250Z,97511.11
2023-03-06T14:26:08.922Z,97509.10
2023-03-06T14:28:37.025Z,97506.23
2023-03-06T14:31:19.473Z,97510.60
2023-03-06T14:33:54.452Z,97508.70
2023-03-06T14:36:22.969Z,97504.15
2023-03-06T14:38:54.442Z,97509.30
2023-03-06T14:41:27.086Z,97509.92
2023-03-06T14:44:18.021Z,97512.70
2023-03-06T14:46:52.045Z,97519.08
2023-03-06T14:49:20.345Z,97517.20
2023-03-06T14:52:14.992Z,97518.84
2023-03-06T14:54:52.235Z,97514.17
2023-03-06T14:57:22.436Z,97513.44
2023-03-06T15:00:02.181Z,97511.83
2023-03-06T15:02:38.937Z,97512.89
2023-03-06T15:05:28.142Z,97511.89
2023-03-06T15:07:58.133Z,97510.98
2023-03-06T15:10:27.376Z,97508.87
2023-03-06T15:13:23.532Z,97504.20
2023-03-06T15:16:22.565Z,97502.45
2023-03-06T15:19:01.329Z,97502.02
2023-03-06T15:21:32.336Z,97504.44
2023-03-06T15:23:59.731Z,97505.12
2023-03-06T15:26:37.138Z,97504.81
2023-03-06T15:29:13.855Z,97505.23
2023-03-06T15:31:44.700Z,97506.94
2023-03-06T15:34:32.476Z,97508.20
2023-03-06T15:36:59.899Z,97512.48
2023-03-06T15:39:34.924Z,97514.48
2023-03-06T15:42:08.179Z,97512.12
2023-03-06T15:44:38.507Z,97510.70
2023-03-06T15:47:09.506Z,97507.59
2023-03-06T15:49:39.538Z,97507.66
2023-03-06T15:52:07.540Z,97512.35
2023-03-06T15:54:35.618Z,97512.69
2023-03-06T15:57:06.449Z,97513.23
2023-03-06T15:59:41.472Z,97513.64
2023-03-06T16:02:28.435Z,97508.98
2023-03-06T16:04:55.336Z,97511.01
2023-03-06T16:07:22.620Z,97513.46
2023-03-06T16:09:50.093Z,97513.23
2023-03-06T16:12:19.059Z,97511.22
2023-03-06T16:14:50.186Z,97515.54
2023-03-06T16:17:23.634Z,97517.41
2023-03-06T16:19:51.556Z,97512.21
2023-03-06T16:22:18.980Z,97511.00
2023-03-06T16:24:46.105Z,97513.09
2023-03-06T16:27:22.857Z,97517.54
2023-03-06T16:29:54.596Z,97519.35
2023-03-06T16:32:22.052Z,97524.22
2023-03-06T16:34:49.119Z,97523.63
2023-03-06T16:37:16.601Z,97522.45
2023-03-06T16:39:51.218Z,97525.55
2023-03-06T16:42:19.393Z,97527.05
2023-03-06T16:44:46.918Z,97521.98
2023-03-06T16:47:19.745Z,97523.77
2023-03-06T16:49:52.073Z,97520.08
2023-03-06T16:52:19.439Z,97522.38
2023-03-06T16:54:56.237Z,97524.33
2023-03-06T16:57:28.416Z,97519.52
2023-03-06T17:00:03.984Z,97522.42
2023-03-06T17:02:34.061Z,97520.45
2023-03-06T17:05:07.258Z,97522.30
2023-03-06T17:07:36.038Z,97521.83
2023-03-06T17:10:05.104Z,97520.20
2023-03-06T17:12:32.520Z,97517.59
2023-03-06T17:14:59.508Z,97521.34
2023-03-06T17:17:27.093Z,97517.36
2023-03-06T17:19:56.642Z,97516.72
2023-03-06T17:22:23.863Z,97512.16
2023-03-06T17:24:52.230Z,97513.36
2023-03-06T17:27:22.368Z,97513.92
2023-03-06T17:29:57.938Z,97508.97
2023-03-06T17:32:27.349Z,97508.39
2023-03-06T17:34:57.542Z,97503.09
2023-03-06T17:37:27.714Z,97503.89
2023-03-06T17:39:55.187Z,97500.61
2023-03-06T17:42:22.433Z,97499.67
2023-03-06T17:44:51.075Z,97499.48
2023-03-06T17:47:20.974Z,97503.27
2023-03-06T17:49:48.110Z,97504.62
2023-03-06T17:52:15.698Z,97499.70
2023-03-06T17:54:43.109Z,97504.07
2023-03-06T17:57:12.597Z,97501.09
2023-03-06T17:59:40.235Z,97499.67
2023-03-06T18:02:11.410Z,97501.49
2023-03-06T18:04:42.449Z,97505.92
2023-03-06T18:07:19.871Z,97498.02
2023-03-06T18:09:47.328Z,97498.33
2023-03-06T18:12:16.907Z,97495.38
2023-03-06T18:14:44.541Z,97493.54
2023-03-06T18:17:12.135Z,97496.91
2023-03-06T18:19:41.297Z,97497.51
2023-03-06T18:22:11.682Z,97494.13
2023-03-06T18:24:38.947Z,97495.55
2023-03-06T18:27:06.579Z,97498.27
2023-03-06T18:29:34.644Z,97500.12
2023-03-06T18:32:02.471Z,97501.27
2023-03-06T18:34:37.692Z,97496.27
2023-03-06T18:37:04.987Z,97500.94
2023-03-06T18:39:32.750Z,97507.79
2023-03-06T18:42:07.006Z,97510.10
2023-03-06T18:44:41.920Z,97509.50
2023-03-06T18:47:17.138Z,97511.96
2023-03-06T18:49:45.988Z,97512.55
2023-03-06T18:52:20.383Z,97511.18
2023-03-06T18:54:51.637Z,97507.66
2023-03-06T18:57:28.723Z,97513.02
2023-03-06T19:00:37.321Z,97514.21
2023-03-06T19:03:19.452Z,97509.63
2023-03-06T19:05:50.444Z,97511.30
2023-03-06T19:08:17.873Z,97512.90
2023-03-06T19:10:50.607Z,97510.86
2023-03-06T19:13:22.194Z,97505.23
2023-03-06T19:15:49.365Z,97506.39
2023-03-06T19:18:22.313Z,97502.64
2023-03-06T19:20:49.617Z,97503.36
2023-03-06T19:23:16.916Z,97500.06
2023-03-06T19:25:43.889Z,97503.44
2023-03-06T19:28:11.639Z,97501.46
2023-03-06T19:30:41.920Z,97503.23
2023-03-06T19:33:15.664Z,97500.83
2023-03-06T19:35:42.974Z,97503.17
2023-03-06T19:38:10.503Z,97502.63
2023-03-06T19:40:38.118Z,97500.19
2023-03-06T19:43:07.770Z,97497.34
2023-03-06T19:45:36.724Z,97497.94
2023-03-06T19:48:05.984Z,97492.96
2023-03-06T19:50:37.069Z,97488.85
2023-03-06T19:53:04.595Z,97482.78
2023-03-06T19:55:31.842Z,97477.65
2023-03-06T19:58:00.044Z,97470.33
2023-03-06T20:00:27.630Z,97466.28
2023-03-06T20:02:55.661Z,97463.42
2023-03-06T20:05:23.195Z,97463.10
2023-03-06T20:07:50.401Z,97459.70
2023-03-06T20:10:18.130Z,97453.21
2023-03-06T20:12:46.780Z,97441.12
2023-03-06T20:15:18.990Z,97435.95
2023-03-06T20:17:58.944Z,97426.40
2023-03-06T20:20:28.057Z,97428.96
2023-03-06T20:23:06.195Z,97420.98
2023-03-06T20:25:36.502Z,97421.00
2023-03-06T20:28:04.770Z,97415.00
2023-03-06T20:30:43.244Z,97420.84
2023-03-06T20:33:10.985Z,97417.60
2023-03-06T20:35:42.747Z,97416.66
2023-03-06T20:38:13.670Z,97409.17
2023-03-06T20:40:46.587Z,97408.30
2023-03-06T20:43:17.495Z,97406.68
2023-03-06T20:45:58.601Z,97409.27
2023-03-06T20:48:26.014Z,97409.98
2023-03-06T20:51:31.551Z,97407.60
2023-03-06T20:54:04.304Z,97400.02
2023-03-06T20:56:40.107Z,97394.25
2023-03-06T20:59:11.927Z,97394.59
2023-03-06T21:01:43.108Z,97396.32
2023-03-06T21:04:13.775Z,97399.80
2023-03-06T21:06:42.578Z,97404.04
2023-03-06T21:09:15.885Z,97411.83
2023-03-06T21:11:44.882Z,97417.42
2023-03-06T21:14:15.758Z,97417.06
2023-03-06T21:16:50.665Z,97419.12
2023-03-06T21:19:27.045Z,97415.42
2023-03-06T21:22:00.033Z,97413.45
2023-03-06T21:24:33.795Z,97413.23
2023-03-06T21:27:04.342Z,97399.73
2023-03-06T21:29:31.607Z,97389.02
2023-03-06T21:32:03.534Z,97389.59
2023-03-06T21:34:34.941Z,97385.33
2023-03-06T21:37:05.053Z,97380.34
2023-03-06T21:39:47.526Z,97382.88
2023-03-06T21:42:17.974Z,97390.98
2023-03-06T21:44:48.936Z,97395.34
2023-03-06T21:47:21.751Z,97390.88
2023-03-06T21:49:52.441Z,97390.99
2023-03-06T21:52:26.556Z,97392.09
2023-03-06T21:55:04.964Z,97388.91
2023-03-06T21:57:41.123Z,97388.55
2023-03-06T22:00:18.389Z,97388.38
2023-03-06T22:02:48.855Z,97384.13
2023-03-06T22:05:21.914Z,97384.64
2023-03-06T22:07:54.950Z,97387.24
2023-03-06T22:10:56.878Z,97385.00
2023-03-06T22:14:45.028Z,97385.71
2023-03-06T22:18:15.966Z,97392.31
2023-03-06T22:21:52.697Z,97392.33
2023-03-06T22:24:32.375Z,97393.85
2023-03-06T22:27:07.813Z,97397.73
2023-03-06T22:29:41.208Z,97400.29
2023-03-06T22:32:17.109Z,97404.96
2023-03-06T22:34:48.030Z,97408.84
2023-03-06T22:37:40.540Z,97412.64
2023-03-06T22:40:15.825Z,97414.95
2023-03-06T22:42:59.724Z,97413.90
2023-03-06T22:45:34.604Z,97415.16
2023-03-06T22:48:11.383Z,97416.60
2023-03-06T22:50:38.892Z,97419.19
2023-03-06T22:53:06.570Z,97418.84
2023-03-06T22:55:37.592Z,97417.22
2023-03-06T22:58:08.025Z,97399.61
2023-03-06T23:00:35.487Z,97409.93
2023-03-06T23:03:05.883Z,97406.28
2023-03-06T23:05:44.316Z,97397.84
2023-03-06T23:08:12.276Z,97392.14
2023-03-06T23:10:39.746Z,97390.04
2023-03-06T23:13:30.349Z,97385.50
2023-03-06T23:16:22.675Z,97386.65
2023-03-06T23:19:09.121Z,97378.23
2023-03-06T23:22:05.518Z,97375.40
2023-03-06T23:24:53.853Z,97364.53
2023-03-06T23:27:24.084Z,97363.94
2023-03-06T23:29:59.040Z,97366.22
2023-03-06T23:32:27.272Z,97370.71
2023-03-06T23:34:54.845Z,97372.41
2023-03-06T23:37:31.112Z,97372.59
2023-03-06T23:40:07.823Z,97362.46
2023-03-06T23:42:40.605Z,97352.52
2023-03-06T23:45:09.041Z,97358.63
2023-03-06T23:47:39.757Z,97367.73
2023-03-06T23:50:07.982Z,97374.14
2023-03-06T23:52:38.306Z,97374.52
2023-03-06T23:55:09.191Z,97376.59
2023-03-06T23:57:36.707Z,97381.54
